sensor_id;sensor_type;location;lat;lon;timestamp;P1;durP1;ratioP1;P2;durP2;ratioP2
10309;SDS011;5200;43.236;27.986;2023-05-17T00:01:10;4.85;;;3.42;;
10309;SDS011;5200;43.236;27.986;2023-05-17T00:03:37;5.70;;;3.00;;
10309;SDS011;5200;43.236;27.986;2023-05-17T00:06:04;7.05;;;3.00;;
10309;SDS011;5200;43.236;27.986;2023-05-17T00:08:31;7.32;;;3.70;;
10309;SDS011;5200;43.236;27.986;2023-05-17T00:10:57;4.47;;;3.50;;
10309;SDS011;5200;43.236;27.986;2023-05-17T00:13:26;3.88;;;2.92;;
10309;SDS011;5200;43.236;27.986;2023-05-17T00:15:52;5.45;;;3.28;;
10309;SDS011;5200;43.236;27.986;2023-05-17T00:18:19;8.20;;;3.35;;
10309;SDS011;5200;43.236;27.986;2023-05-17T00:20:46;6.03;;;3.17;;
10309;SDS011;5200;43.236;27.986;2023-05-17T00:23:13;3.67;;;3.25;;
10309;SDS011;5200;43.236;27.986;2023-05-17T00:25:39;4.97;;;3.50;;
10309;SDS011;5200;43.236;27.986;2023-05-17T00:28:07;10.30;;;3.85;;
10309;SDS011;5200;43.236;27.986;2023-05-17T00:30:35;7.40;;;3.25;;
10309;SDS011;5200;43.236;27.986;2023-05-17T00:33:02;5.35;;;3.28;;
10309;SDS011;5200;43.236;27.986;2023-05-17T00:35:29;5.10;;;2.88;;
10309;SDS011;5200;43.236;27.986;2023-05-17T00:37:56;3.65;;;2.75;;
10309;SDS011;5200;43.236;27.986;2023-05-17T00:40:23;5.57;;;2.95;;
10309;SDS011;5200;43.236;27.986;2023-05-17T00:42:50;6.63;;;3.47;;
10309;SDS011;5200;43.236;27.986;2023-05-17T00:45:16;8.68;;;3.00;;
10309;SDS011;5200;43.236;27.986;2023-05-17T00:47:45;5.32;;;3.67;;
10309;SDS011;5200;43.236;27.986;2023-05-17T00:50:11;5.35;;;3.55;;
10309;SDS011;5200;43.236;27.986;2023-05-17T00:52:38;4.63;;;3.00;;
10309;SDS011;5200;43.236;27.986;2023-05-17T00:55:06;9.93;;;3.80;;
10309;SDS011;5200;43.236;27.986;2023-05-17T00:57:33;6.28;;;3.03;;
10309;SDS011;5200;43.236;27.986;2023-05-17T01:00:00;7.35;;;3.28;;
10309;SDS011;5200;43.236;27.986;2023-05-17T01:02:28;3.60;;;2.55;;
10309;SDS011;5200;43.236;27.986;2023-05-17T01:04:57;5.72;;;3.20;;
10309;SDS011;5200;43.236;27.986;2023-05-17T01:07:25;7.15;;;3.53;;
10309;SDS011;5200;43.236;27.986;2023-05-17T01:09:52;3.58;;;2.63;;
10309;SDS011;5200;43.236;27.986;2023-05-17T01:12:22;7.28;;;3.25;;
10309;SDS011;5200;43.236;27.986;2023-05-17T01:14:57;4.68;;;2.85;;
10309;SDS011;5200;43.236;27.986;2023-05-17T01:17:33;5.30;;;3.22;;
10309;SDS011;5200;43.236;27.986;2023-05-17T01:20:08;9.65;;;3.33;;
10309;SDS011;5200;43.236;27.986;2023-05-17T01:22:50;6.28;;;2.50;;
10309;SDS011;5200;43.236;27.986;2023-05-17T01:25:30;3.10;;;2.80;;
10309;SDS011;5200;43.236;27.986;2023-05-17T01:28:07;6.88;;;3.28;;
10309;SDS011;5200;43.236;27.986;2023-05-17T01:30:37;6.18;;;3.55;;
10309;SDS011;5200;43.236;27.986;2023-05-17T01:33:05;6.68;;;2.70;;
10309;SDS011;5200;43.236;27.986;2023-05-17T01:35:34;7.18;;;3.15;;
10309;SDS011;5200;43.236;27.986;2023-05-17T01:38:00;4.43;;;2.83;;
10309;SDS011;5200;43.236;27.986;2023-05-17T01:40:27;7.25;;;3.88;;
10309;SDS011;5200;43.236;27.986;2023-05-17T01:42:59;6.22;;;3.50;;
10309;SDS011;5200;43.236;27.986;2023-05-17T01:45:37;3.45;;;2.50;;
10309;SDS011;5200;43.236;27.986;2023-05-17T01:48:11;7.72;;;2.80;;
10309;SDS011;5200;43.236;27.986;2023-05-17T01:50:45;7.90;;;2.78;;
10309;SDS011;5200;43.236;27.986;2023-05-17T01:53:16;2.75;;;2.10;;
10309;SDS011;5200;43.236;27.986;2023-05-17T01:55:48;6.10;;;2.85;;
10309;SDS011;5200;43.236;27.986;2023-05-17T01:58:19;2.90;;;2.17;;
10309;SDS011;5200;43.236;27.986;2023-05-17T02:00:53;5.97;;;2.47;;
10309;SDS011;5200;43.236;27.986;2023-05-17T02:03:21;4.30;;;2.58;;
10309;SDS011;5200;43.236;27.986;2023-05-17T02:05:48;5.45;;;2.05;;
10309;SDS011;5200;43.236;27.986;2023-05-17T02:08:15;8.23;;;2.67;;
10309;SDS011;5200;43.236;27.986;2023-05-17T02:10:42;2.95;;;2.33;;
10309;SDS011;5200;43.236;27.986;2023-05-17T02:13:08;6.25;;;2.30;;
10309;SDS011;5200;43.236;27.986;2023-05-17T02:15:36;3.60;;;2.10;;
10309;SDS011;5200;43.236;27.986;2023-05-17T02:18:05;6.60;;;2.33;;
10309;SDS011;5200;43.236;27.986;2023-05-17T02:20:31;5.53;;;2.60;;
10309;SDS011;5200;43.236;27.986;2023-05-17T02:22:58;7.78;;;2.33;;
10309;SDS011;5200;43.236;27.986;2023-05-17T02:25:25;2.30;;;2.10;;
10309;SDS011;5200;43.236;27.986;2023-05-17T02:27:52;3.75;;;2.25;;
10309;SDS011;5200;43.236;27.986;2023-05-17T02:30:19;3.60;;;2.55;;
10309;SDS011;5200;43.236;27.986;2023-05-17T02:32:47;6.47;;;2.58;;
10309;SDS011;5200;43.236;27.986;2023-05-17T02:35:15;3.97;;;2.65;;
10309;SDS011;5200;43.236;27.986;2023-05-17T02:37:42;4.78;;;1.98;;
10309;SDS011;5200;43.236;27.986;2023-05-17T02:40:09;3.28;;;2.13;;
10309;SDS011;5200;43.236;27.986;2023-05-17T02:42:36;5.50;;;1.92;;
10309;SDS011;5200;43.236;27.986;2023-05-17T02:45:03;4.45;;;2.03;;
10309;SDS011;5200;43.236;27.986;2023-05-17T02:47:30;3.70;;;2.28;;
10309;SDS011;5200;43.236;27.986;2023-05-17T02:49:57;5.53;;;2.15;;
10309;SDS011;5200;43.236;27.986;2023-05-17T02:52:25;5.57;;;2.10;;
10309;SDS011;5200;43.236;27.986;2023-05-17T02:54:52;4.85;;;2.05;;
10309;SDS011;5200;43.236;27.986;2023-05-17T02:57:19;3.72;;;2.00;;
10309;SDS011;5200;43.236;27.986;2023-05-17T02:59:46;1.83;;;1.70;;
10309;SDS011;5200;43.236;27.986;2023-05-17T03:02:13;7.70;;;2.60;;
10309;SDS011;5200;43.236;27.986;2023-05-17T03:04:39;4.45;;;1.70;;
10309;SDS011;5200;43.236;27.986;2023-05-17T03:07:06;5.55;;;2.17;;
10309;SDS011;5200;43.236;27.986;2023-05-17T03:09:34;3.85;;;2.00;;
10309;SDS011;5200;43.236;27.986;2023-05-17T03:12:01;6.75;;;2.20;;
10309;SDS011;5200;43.236;27.986;2023-05-17T03:14:28;9.82;;;2.40;;
10309;SDS011;5200;43.236;27.986;2023-05-17T03:16:55;3.17;;;1.63;;
10309;SDS011;5200;43.236;27.986;2023-05-17T03:19:22;6.80;;;2.20;;
10309;SDS011;5200;43.236;27.986;2023-05-17T03:21:49;6.45;;;3.53;;
10309;SDS011;5200;43.236;27.986;2023-05-17T03:24:15;6.32;;;2.17;;
10309;SDS011;5200;43.236;27.986;2023-05-17T03:26:43;8.23;;;2.35;;
10309;SDS011;5200;43.236;27.986;2023-05-17T03:29:10;4.68;;;2.00;;
10309;SDS011;5200;43.236;27.986;2023-05-17T03:31:37;3.65;;;2.08;;
10309;SDS011;5200;43.236;27.986;2023-05-17T03:34:04;3.90;;;2.00;;
10309;SDS011;5200;43.236;27.986;2023-05-17T03:36:32;3.50;;;1.83;;
10309;SDS011;5200;43.236;27.986;2023-05-17T03:38:59;6.43;;;2.00;;
10309;SDS011;5200;43.236;27.986;2023-05-17T03:41:26;9.45;;;2.20;;
10309;SDS011;5200;43.236;27.986;2023-05-17T03:43:54;3.95;;;2.30;;
10309;SDS011;5200;43.236;27.986;2023-05-17T03:46:21;2.85;;;1.85;;
10309;SDS011;5200;43.236;27.986;2023-05-17T03:48:48;2.15;;;1.75;;
10309;SDS011;5200;43.236;27.986;2023-05-17T03:51:14;2.80;;;2.00;;
10309;SDS011;5200;43.236;27.986;2023-05-17T03:53:42;5.47;;;2.00;;
10309;SDS011;5200;43.236;27.986;2023-05-17T03:56:09;3.53;;;2.20;;
10309;SDS011;5200;43.236;27.986;2023-05-17T03:58:36;3.13;;;1.80;;
10309;SDS011;5200;43.236;27.986;2023-05-17T04:01:04;7.25;;;2.08;;
10309;SDS011;5200;43.236;27.986;2023-05-17T04:03:31;2.20;;;1.63;;
10309;SDS011;5200;43.236;27.986;2023-05-17T04:06:02;5.68;;;2.15;;
10309;SDS011;5200;43.236;27.986;2023-05-17T04:08:31;4.43;;;1.70;;
10309;SDS011;5200;43.236;27.986;2023-05-17T04:10:58;4.65;;;1.67;;
10309;SDS011;5200;43.236;27.986;2023-05-17T04:13:25;5.22;;;2.00;;
10309;SDS011;5200;43.236;27.986;2023-05-17T04:15:52;4.50;;;1.77;;
10309;SDS011;5200;43.236;27.986;2023-05-17T04:18:20;5.25;;;2.15;;
10309;SDS011;5200;43.236;27.986;2023-05-17T04:20:47;2.80;;;1.90;;
10309;SDS011;5200;43.236;27.986;2023-05-17T04:23:14;4.32;;;2.33;;
10309;SDS011;5200;43.236;27.986;2023-05-17T04:25:40;3.78;;;1.80;;
10309;SDS011;5200;43.236;27.986;2023-05-17T04:28:07;7.45;;;1.80;;
10309;SDS011;5200;43.236;27.986;2023-05-17T04:30:34;2.85;;;1.85;;
10309;SDS011;5200;43.236;27.986;2023-05-17T04:33:01;2.10;;;1.70;;
10309;SDS011;5200;43.236;27.986;2023-05-17T04:35:29;6.78;;;1.98;;
10309;SDS011;5200;43.236;27.986;2023-05-17T04:37:56;5.65;;;2.50;;
10309;SDS011;5200;43.236;27.986;2023-05-17T04:40:22;2.75;;;1.85;;
10309;SDS011;5200;43.236;27.986;2023-05-17T04:42:49;3.97;;;2.13;;
10309;SDS011;5200;43.236;27.986;2023-05-17T04:45:16;1.83;;;1.65;;
10309;SDS011;5200;43.236;27.986;2023-05-17T04:47:43;3.22;;;2.03;;
10309;SDS011;5200;43.236;27.986;2023-05-17T04:50:10;3.25;;;1.90;;
10309;SDS011;5200;43.236;27.986;2023-05-17T04:52:39;2.10;;;1.65;;
10309;SDS011;5200;43.236;27.986;2023-05-17T04:55:06;2.85;;;1.73;;
10309;SDS011;5200;43.236;27.986;2023-05-17T04:57:33;5.95;;;1.98;;
10309;SDS011;5200;43.236;27.986;2023-05-17T05:00:00;3.28;;;1.77;;
10309;SDS011;5200;43.236;27.986;2023-05-17T05:02:28;5.40;;;2.50;;
10309;SDS011;5200;43.236;27.986;2023-05-17T05:04:54;4.28;;;1.92;;
10309;SDS011;5200;43.236;27.986;2023-05-17T05:07:21;2.38;;;1.80;;
10309;SDS011;5200;43.236;27.986;2023-05-17T05:09:49;4.38;;;1.98;;
10309;SDS011;5200;43.236;27.986;2023-05-17T05:12:16;2.78;;;1.98;;
10309;SDS011;5200;43.236;27.986;2023-05-17T05:14:43;2.30;;;1.33;;
10309;SDS011;5200;43.236;27.986;2023-05-17T05:17:10;5.60;;;1.90;;
10309;SDS011;5200;43.236;27.986;2023-05-17T05:19:37;2.78;;;2.03;;
10309;SDS011;5200;43.236;27.986;2023-05-17T05:22:04;1.92;;;1.83;;
10309;SDS011;5200;43.236;27.986;2023-05-17T05:24:31;3.22;;;1.80;;
10309;SDS011;5200;43.236;27.986;2023-05-17T05:26:59;3.45;;;1.98;;
10309;SDS011;5200;43.236;27.986;2023-05-17T05:29:26;6.57;;;1.83;;
10309;SDS011;5200;43.236;27.986;2023-05-17T05:31:53;2.65;;;1.83;;
10309;SDS011;5200;43.236;27.986;2023-05-17T05:34:19;4.22;;;2.28;;
10309;SDS011;5200;43.236;27.986;2023-05-17T05:36:46;3.90;;;1.95;;
10309;SDS011;5200;43.236;27.986;2023-05-17T05:39:13;3.78;;;1.83;;
10309;SDS011;5200;43.236;27.986;2023-05-17T05:41:40;2.55;;;1.85;;
10309;SDS011;5200;43.236;27.986;2023-05-17T05:44:08;7.50;;;2.30;;
10309;SDS011;5200;43.236;27.986;2023-05-17T05:46:35;4.35;;;1.90;;
10309;SDS011;5200;43.236;27.986;2023-05-17T05:49:02;2.42;;;1.83;;
10309;SDS011;5200;43.236;27.986;2023-05-17T05:51:28;2.70;;;2.22;;
10309;SDS011;5200;43.236;27.986;2023-05-17T05:53:55;6.97;;;1.85;;
10309;SDS011;5200;43.236;27.986;2023-05-17T05:56:22;3.35;;;1.90;;
10309;SDS011;5200;43.236;27.986;2023-05-17T05:58:51;2.05;;;1.77;;
10309;SDS011;5200;43.236;27.986;2023-05-17T06:01:19;2.50;;;1.50;;
10309;SDS011;5200;43.236;27.986;2023-05-17T06:03:46;2.90;;;1.98;;
10309;SDS011;5200;43.236;27.986;2023-05-17T06:06:13;2.35;;;1.65;;
10309;SDS011;5200;43.236;27.986;2023-05-17T06:08:40;2.65;;;2.03;;
10309;SDS011;5200;43.236;27.986;2023-05-17T06:11:09;4.32;;;1.80;;
10309;SDS011;5200;43.236;27.986;2023-05-17T06:13:36;3.08;;;1.80;;
10309;SDS011;5200;43.236;27.986;2023-05-17T06:16:03;4.40;;;1.83;;
10309;SDS011;5200;43.236;27.986;2023-05-17T06:18:32;2.55;;;1.70;;
10309;SDS011;5200;43.236;27.986;2023-05-17T06:20:59;9.32;;;1.88;;
10309;SDS011;5200;43.236;27.986;2023-05-17T06:23:25;5.50;;;1.90;;
10309;SDS011;5200;43.236;27.986;2023-05-17T06:25:52;3.03;;;1.83;;
10309;SDS011;5200;43.236;27.986;2023-05-17T06:28:19;2.35;;;1.50;;
10309;SDS011;5200;43.236;27.986;2023-05-17T06:30:46;2.30;;;1.48;;
10309;SDS011;5200;43.236;27.986;2023-05-17T06:33:13;2.00;;;1.77;;
10309;SDS011;5200;43.236;27.986;2023-05-17T06:35:41;3.47;;;1.73;;
10309;SDS011;5200;43.236;27.986;2023-05-17T06:38:08;5.53;;;2.10;;
10309;SDS011;5200;43.236;27.986;2023-05-17T06:40:35;3.13;;;1.77;;
10309;SDS011;5200;43.236;27.986;2023-05-17T06:43:02;1.80;;;1.50;;
10309;SDS011;5200;43.236;27.986;2023-05-17T06:45:29;2.17;;;1.42;;
10309;SDS011;5200;43.236;27.986;2023-05-17T06:47:56;3.40;;;1.48;;
10309;SDS011;5200;43.236;27.986;2023-05-17T06:50:22;3.67;;;1.73;;
10309;SDS011;5200;43.236;27.986;2023-05-17T06:52:52;2.15;;;1.77;;
10309;SDS011;5200;43.236;27.986;2023-05-17T06:55:19;5.07;;;1.42;;
10309;SDS011;5200;43.236;27.986;2023-05-17T06:57:46;4.50;;;1.52;;
10309;SDS011;5200;43.236;27.986;2023-05-17T07:00:13;4.30;;;1.73;;
10309;SDS011;5200;43.236;27.986;2023-05-17T07:02:40;1.83;;;1.15;;
10309;SDS011;5200;43.236;27.986;2023-05-17T07:05:07;4.25;;;1.58;;
10309;SDS011;5200;43.236;27.986;2023-05-17T07:07:34;4.13;;;1.63;;
10309;SDS011;5200;43.236;27.986;2023-05-17T07:10:02;1.50;;;1.30;;
10309;SDS011;5200;43.236;27.986;2023-05-17T07:12:30;1.67;;;1.10;;
10309;SDS011;5200;43.236;27.986;2023-05-17T07:14:57;2.38;;;1.70;;
10309;SDS011;5200;43.236;27.986;2023-05-17T07:17:24;3.30;;;1.70;;
10309;SDS011;5200;43.236;27.986;2023-05-17T07:19:51;1.90;;;1.30;;
10309;SDS011;5200;43.236;27.986;2023-05-17T07:22:17;2.20;;;1.17;;
10309;SDS011;5200;43.236;27.986;2023-05-17T07:24:44;1.20;;;1.10;;
10309;SDS011;5200;43.236;27.986;2023-05-17T07:27:13;4.65;;;1.55;;
10309;SDS011;5200;43.236;27.986;2023-05-17T07:29:40;2.00;;;1.50;;
10309;SDS011;5200;43.236;27.986;2023-05-17T07:32:07;4.68;;;1.50;;
10309;SDS011;5200;43.236;27.986;2023-05-17T07:34:34;1.98;;;1.33;;
10309;SDS011;5200;43.236;27.986;2023-05-17T07:37:01;5.25;;;1.38;;
10309;SDS011;5200;43.236;27.986;2023-05-17T07:39:28;2.90;;;1.45;;
10309;SDS011;5200;43.236;27.986;2023-05-17T07:41:55;2.33;;;1.23;;
10309;SDS011;5200;43.236;27.986;2023-05-17T07:44:23;1.10;;;1.10;;
10309;SDS011;5200;43.236;27.986;2023-05-17T07:46:50;2.05;;;1.63;;
10309;SDS011;5200;43.236;27.986;2023-05-17T07:49:17;3.42;;;1.75;;
10309;SDS011;5200;43.236;27.986;2023-05-17T07:51:44;2.42;;;1.58;;
10309;SDS011;5200;43.236;27.986;2023-05-17T07:54:11;3.75;;;1.38;;
10309;SDS011;5200;43.236;27.986;2023-05-17T07:56:47;1.40;;;1.27;;
10309;SDS011;5200;43.236;27.986;2023-05-17T07:59:14;3.03;;;1.42;;
10309;SDS011;5200;43.236;27.986;2023-05-17T08:01:42;4.00;;;1.50;;
10309;SDS011;5200;43.236;27.986;2023-05-17T08:04:09;2.90;;;1.60;;
10309;SDS011;5200;43.236;27.986;2023-05-17T08:06:38;2.67;;;1.83;;
10309;SDS011;5200;43.236;27.986;2023-05-17T08:09:05;1.90;;;1.30;;
10309;SDS011;5200;43.236;27.986;2023-05-17T08:11:31;2.20;;;1.45;;
10309;SDS011;5200;43.236;27.986;2023-05-17T08:13:59;1.42;;;1.25;;
10309;SDS011;5200;43.236;27.986;2023-05-17T08:16:25;1.48;;;1.30;;
10309;SDS011;5200;43.236;27.986;2023-05-17T08:18:54;4.45;;;1.67;;
10309;SDS011;5200;43.236;27.986;2023-05-17T08:21:20;3.67;;;2.00;;
10309;SDS011;5200;43.236;27.986;2023-05-17T08:23:48;4.13;;;2.25;;
10309;SDS011;5200;43.236;27.986;2023-05-17T08:26:15;3.05;;;1.90;;
10309;SDS011;5200;43.236;27.986;2023-05-17T08:28:43;3.50;;;2.65;;
10309;SDS011;5200;43.236;27.986;2023-05-17T08:31:09;3.03;;;1.63;;
10309;SDS011;5200;43.236;27.986;2023-05-17T08:33:36;6.60;;;1.90;;
10309;SDS011;5200;43.236;27.986;2023-05-17T08:36:05;1.70;;;1.58;;
10309;SDS011;5200;43.236;27.986;2023-05-17T08:38:32;1.98;;;1.80;;
10309;SDS011;5200;43.236;27.986;2023-05-17T08:40:59;4.43;;;2.05;;
10309;SDS011;5200;43.236;27.986;2023-05-17T08:43:27;2.90;;;1.98;;
10309;SDS011;5200;43.236;27.986;2023-05-17T08:45:56;3.15;;;1.88;;
10309;SDS011;5200;43.236;27.986;2023-05-17T08:48:23;2.63;;;2.00;;
10309;SDS011;5200;43.236;27.986;2023-05-17T08:50:52;2.33;;;2.05;;
10309;SDS011;5200;43.236;27.986;2023-05-17T08:53:23;2.55;;;2.03;;
10309;SDS011;5200;43.236;27.986;2023-05-17T08:55:50;3.67;;;1.85;;
10309;SDS011;5200;43.236;27.986;2023-05-17T08:58:24;5.63;;;2.45;;
10309;SDS011;5200;43.236;27.986;2023-05-17T09:00:53;2.67;;;1.85;;
10309;SDS011;5200;43.236;27.986;2023-05-17T09:03:21;3.63;;;1.77;;
10309;SDS011;5200;43.236;27.986;2023-05-17T09:05:49;4.57;;;2.45;;
10309;SDS011;5200;43.236;27.986;2023-05-17T09:08:17;4.70;;;2.22;;
10309;SDS011;5200;43.236;27.986;2023-05-17T09:10:46;2.53;;;1.48;;
10309;SDS011;5200;43.236;27.986;2023-05-17T09:13:13;3.25;;;2.05;;
10309;SDS011;5200;43.236;27.986;2023-05-17T09:15:41;5.75;;;2.85;;
10309;SDS011;5200;43.236;27.986;2023-05-17T09:18:09;2.67;;;2.15;;
10309;SDS011;5200;43.236;27.986;2023-05-17T09:20:37;3.95;;;2.42;;
10309;SDS011;5200;43.236;27.986;2023-05-17T09:23:05;3.22;;;2.20;;
10309;SDS011;5200;43.236;27.986;2023-05-17T09:25:34;2.92;;;1.92;;
10309;SDS011;5200;43.236;27.986;2023-05-17T09:28:03;5.60;;;2.47;;
10309;SDS011;5200;43.236;27.986;2023-05-17T09:30:33;4.85;;;1.98;;
10309;SDS011;5200;43.236;27.986;2023-05-17T09:33:03;3.13;;;2.08;;
10309;SDS011;5200;43.236;27.986;2023-05-17T09:35:32;3.13;;;2.40;;
10309;SDS011;5200;43.236;27.986;2023-05-17T09:38:04;3.63;;;2.00;;
10309;SDS011;5200;43.236;27.986;2023-05-17T09:40:33;2.33;;;2.13;;
10309;SDS011;5200;43.236;27.986;2023-05-17T09:43:05;2.85;;;1.92;;
10309;SDS011;5200;43.236;27.986;2023-05-17T09:45:32;2.00;;;1.88;;
10309;SDS011;5200;43.236;27.986;2023-05-17T09:48:09;3.20;;;2.20;;
10309;SDS011;5200;43.236;27.986;2023-05-17T09:50:42;5.40;;;2.40;;
10309;SDS011;5200;43.236;27.986;2023-05-17T09:53:20;2.40;;;2.05;;
10309;SDS011;5200;43.236;27.986;2023-05-17T09:55:48;3.40;;;2.10;;
10309;SDS011;5200;43.236;27.986;2023-05-17T09:58:18;2.08;;;1.80;;
10309;SDS011;5200;43.236;27.986;2023-05-17T10:00:45;2.40;;;2.15;;
10309;SDS011;5200;43.236;27.986;2023-05-17T10:03:17;4.95;;;2.03;;
10309;SDS011;5200;43.236;27.986;2023-05-17T10:05:44;3.88;;;2.47;;
10309;SDS011;5200;43.236;27.986;2023-05-17T10:08:12;6.63;;;2.33;;
10309;SDS011;5200;43.236;27.986;2023-05-17T10:10:40;5.32;;;2.30;;
10309;SDS011;5200;43.236;27.986;2023-05-17T10:13:08;5.88;;;2.33;;
10309;SDS011;5200;43.236;27.986;2023-05-17T10:15:38;2.30;;;1.85;;
10309;SDS011;5200;43.236;27.986;2023-05-17T10:18:07;4.47;;;1.58;;
10309;SDS011;5200;43.236;27.986;2023-05-17T10:20:36;2.05;;;1.88;;
10309;SDS011;5200;43.236;27.986;2023-05-17T10:23:03;2.90;;;1.83;;
10309;SDS011;5200;43.236;27.986;2023-05-17T10:25:32;2.65;;;1.88;;
10309;SDS011;5200;43.236;27.986;2023-05-17T10:28:00;4.95;;;1.77;;
10309;SDS011;5200;43.236;27.986;2023-05-17T10:30:30;2.00;;;1.80;;
10309;SDS011;5200;43.236;27.986;2023-05-17T10:32:59;4.38;;;1.90;;
10309;SDS011;5200;43.236;27.986;2023-05-17T10:35:28;3.97;;;2.38;;
10309;SDS011;5200;43.236;27.986;2023-05-17T10:37:56;4.78;;;2.58;;
10309;SDS011;5200;43.236;27.986;2023-05-17T10:40:23;5.70;;;4.85;;
10309;SDS011;5200;43.236;27.986;2023-05-17T10:42:51;2.67;;;2.10;;
10309;SDS011;5200;43.236;27.986;2023-05-17T10:45:20;2.35;;;1.75;;
10309;SDS011;5200;43.236;27.986;2023-05-17T10:47:49;2.28;;;1.67;;
10309;SDS011;5200;43.236;27.986;2023-05-17T10:50:21;1.42;;;1.33;;
10309;SDS011;5200;43.236;27.986;2023-05-17T10:52:49;2.25;;;1.70;;
10309;SDS011;5200;43.236;27.986;2023-05-17T10:55:18;4.45;;;1.95;;
10309;SDS011;5200;43.236;27.986;2023-05-17T10:57:56;6.57;;;1.83;;
10309;SDS011;5200;43.236;27.986;2023-05-17T11:00:37;2.53;;;1.95;;
10309;SDS011;5200;43.236;27.986;2023-05-17T11:03:11;3.08;;;1.73;;
10309;SDS011;5200;43.236;27.986;2023-05-17T11:05:41;5.50;;;2.33;;
10309;SDS011;5200;43.236;27.986;2023-05-17T11:08:13;2.03;;;1.77;;
10309;SDS011;5200;43.236;27.986;2023-05-17T11:13:42;2.90;;;2.28;;
10309;SDS011;5200;43.236;27.986;2023-05-17T11:16:19;2.95;;;2.30;;
10309;SDS011;5200;43.236;27.986;2023-05-17T11:18:48;5.25;;;2.35;;
10309;SDS011;5200;43.236;27.986;2023-05-17T11:21:17;5.57;;;2.15;;
10309;SDS011;5200;43.236;27.986;2023-05-17T11:23:44;4.20;;;2.22;;
10309;SDS011;5200;43.236;27.986;2023-05-17T11:26:15;4.20;;;1.73;;
10309;SDS011;5200;43.236;27.986;2023-05-17T11:28:46;1.80;;;1.70;;
10309;SDS011;5200;43.236;27.986;2023-05-17T11:31:13;2.65;;;2.00;;
10309;SDS011;5200;43.236;27.986;2023-05-17T11:33:41;6.28;;;2.35;;
10309;SDS011;5200;43.236;27.986;2023-05-17T11:36:13;5.65;;;2.25;;
10309;SDS011;5200;43.236;27.986;2023-05-17T11:38:48;2.50;;;2.15;;
10309;SDS011;5200;43.236;27.986;2023-05-17T11:41:16;2.33;;;2.00;;
10309;SDS011;5200;43.236;27.986;2023-05-17T11:43:45;5.47;;;2.10;;
10309;SDS011;5200;43.236;27.986;2023-05-17T11:46:17;3.15;;;1.98;;
10309;SDS011;5200;43.236;27.986;2023-05-17T11:48:45;3.97;;;2.35;;
10309;SDS011;5200;43.236;27.986;2023-05-17T11:51:15;4.18;;;2.40;;
10309;SDS011;5200;43.236;27.986;2023-05-17T11:53:44;2.65;;;2.25;;
10309;SDS011;5200;43.236;27.986;2023-05-17T11:56:14;2.42;;;2.17;;
10309;SDS011;5200;43.236;27.986;2023-05-17T11:58:41;2.28;;;2.08;;
10309;SDS011;5200;43.236;27.986;2023-05-17T12:01:09;9.02;;;2.20;;
10309;SDS011;5200;43.236;27.986;2023-05-17T12:03:35;1.80;;;1.70;;
10309;SDS011;5200;43.236;27.986;2023-05-17T12:06:06;3.47;;;2.15;;
10309;SDS011;5200;43.236;27.986;2023-05-17T12:08:35;4.72;;;2.40;;
10309;SDS011;5200;43.236;27.986;2023-05-17T12:11:05;3.50;;;2.40;;
10309;SDS011;5200;43.236;27.986;2023-05-17T12:13:34;4.22;;;2.10;;
10309;SDS011;5200;43.236;27.986;2023-05-17T12:16:01;2.85;;;2.53;;
10309;SDS011;5200;43.236;27.986;2023-05-17T12:18:33;5.03;;;2.50;;
10309;SDS011;5200;43.236;27.986;2023-05-17T12:21:01;3.22;;;2.78;;
10309;SDS011;5200;43.236;27.986;2023-05-17T12:23:29;4.63;;;2.58;;
10309;SDS011;5200;43.236;27.986;2023-05-17T12:26:09;4.13;;;2.45;;
10309;SDS011;5200;43.236;27.986;2023-05-17T12:28:38;7.60;;;2.47;;
10309;SDS011;5200;43.236;27.986;2023-05-17T12:31:07;2.15;;;2.03;;
10309;SDS011;5200;43.236;27.986;2023-05-17T12:33:37;4.10;;;2.25;;
10309;SDS011;5200;43.236;27.986;2023-05-17T12:36:06;7.10;;;2.85;;
10309;SDS011;5200;43.236;27.986;2023-05-17T12:38:34;6.65;;;2.80;;
10309;SDS011;5200;43.236;27.986;2023-05-17T12:41:02;5.03;;;2.85;;
10309;SDS011;5200;43.236;27.986;2023-05-17T12:43:31;4.53;;;2.55;;
10309;SDS011;5200;43.236;27.986;2023-05-17T12:46:04;3.22;;;2.53;;
10309;SDS011;5200;43.236;27.986;2023-05-17T12:48:32;8.15;;;2.72;;
10309;SDS011;5200;43.236;27.986;2023-05-17T12:51:04;4.55;;;2.83;;
10309;SDS011;5200;43.236;27.986;2023-05-17T12:53:35;5.15;;;2.80;;
10309;SDS011;5200;43.236;27.986;2023-05-17T12:56:03;5.30;;;2.58;;
10309;SDS011;5200;43.236;27.986;2023-05-17T12:58:30;2.97;;;2.70;;
10309;SDS011;5200;43.236;27.986;2023-05-17T13:00:58;3.03;;;2.40;;
10309;SDS011;5200;43.236;27.986;2023-05-17T13:03:27;5.85;;;3.03;;
10309;SDS011;5200;43.236;27.986;2023-05-17T13:06:01;6.07;;;2.72;;
10309;SDS011;5200;43.236;27.986;2023-05-17T13:08:31;5.63;;;2.80;;
10309;SDS011;5200;43.236;27.986;2023-05-17T13:11:09;5.45;;;2.67;;
10309;SDS011;5200;43.236;27.986;2023-05-17T13:13:37;3.38;;;2.83;;
10309;SDS011;5200;43.236;27.986;2023-05-17T13:16:04;3.22;;;2.60;;
10309;SDS011;5200;43.236;27.986;2023-05-17T13:18:52;6.68;;;3.45;;
10309;SDS011;5200;43.236;27.986;2023-05-17T13:21:19;3.30;;;2.90;;
10309;SDS011;5200;43.236;27.986;2023-05-17T13:23:47;5.47;;;2.40;;
10309;SDS011;5200;43.236;27.986;2023-05-17T13:26:15;5.38;;;2.35;;
10309;SDS011;5200;43.236;27.986;2023-05-17T13:28:42;2.45;;;2.20;;
10309;SDS011;5200;43.236;27.986;2023-05-17T13:31:09;8.05;;;2.63;;
10309;SDS011;5200;43.236;27.986;2023-05-17T13:33:36;4.15;;;2.38;;
10309;SDS011;5200;43.236;27.986;2023-05-17T13:36:05;5.93;;;2.70;;
10309;SDS011;5200;43.236;27.986;2023-05-17T13:38:32;4.82;;;2.53;;
10309;SDS011;5200;43.236;27.986;2023-05-17T13:40:59;8.10;;;2.90;;
10309;SDS011;5200;43.236;27.986;2023-05-17T13:43:25;3.03;;;2.58;;
10309;SDS011;5200;43.236;27.986;2023-05-17T13:45:52;4.95;;;2.90;;
10309;SDS011;5200;43.236;27.986;2023-05-17T13:48:23;2.92;;;2.63;;
10309;SDS011;5200;43.236;27.986;2023-05-17T13:50:50;5.00;;;2.55;;
10309;SDS011;5200;43.236;27.986;2023-05-17T13:53:18;5.30;;;2.97;;
10309;SDS011;5200;43.236;27.986;2023-05-17T13:55:45;4.90;;;3.08;;
10309;SDS011;5200;43.236;27.986;2023-05-17T13:58:13;3.42;;;2.45;;
10309;SDS011;5200;43.236;27.986;2023-05-17T14:00:41;4.53;;;3.13;;
10309;SDS011;5200;43.236;27.986;2023-05-17T14:03:09;11.00;;;3.25;;
10309;SDS011;5200;43.236;27.986;2023-05-17T14:05:37;3.10;;;2.78;;
10309;SDS011;5200;43.236;27.986;2023-05-17T14:08:04;7.50;;;2.65;;
10309;SDS011;5200;43.236;27.986;2023-05-17T14:10:32;5.03;;;2.50;;
10309;SDS011;5200;43.236;27.986;2023-05-17T14:12:59;2.92;;;2.47;;
10309;SDS011;5200;43.236;27.986;2023-05-17T14:15:26;3.10;;;2.58;;
10309;SDS011;5200;43.236;27.986;2023-05-17T14:17:53;5.55;;;2.70;;
10309;SDS011;5200;43.236;27.986;2023-05-17T14:20:20;2.97;;;2.40;;
10309;SDS011;5200;43.236;27.986;2023-05-17T14:22:47;4.07;;;2.80;;
10309;SDS011;5200;43.236;27.986;2023-05-17T14:25:14;7.07;;;2.83;;
10309;SDS011;5200;43.236;27.986;2023-05-17T14:27:42;4.25;;;2.58;;
10309;SDS011;5200;43.236;27.986;2023-05-17T14:30:09;4.65;;;2.72;;
10309;SDS011;5200;43.236;27.986;2023-05-17T14:32:37;5.10;;;2.60;;
10309;SDS011;5200;43.236;27.986;2023-05-17T14:35:04;5.80;;;2.80;;
10309;SDS011;5200;43.236;27.986;2023-05-17T14:37:32;3.97;;;3.05;;
10309;SDS011;5200;43.236;27.986;2023-05-17T14:39:59;5.28;;;2.90;;
10309;SDS011;5200;43.236;27.986;2023-05-17T14:42:26;4.43;;;2.80;;
10309;SDS011;5200;43.236;27.986;2023-05-17T14:44:56;3.05;;;2.58;;
10309;SDS011;5200;43.236;27.986;2023-05-17T14:47:23;4.30;;;3.42;;
10309;SDS011;5200;43.236;27.986;2023-05-17T14:49:49;6.18;;;2.83;;
10309;SDS011;5200;43.236;27.986;2023-05-17T14:52:16;4.43;;;2.20;;
10309;SDS011;5200;43.236;27.986;2023-05-17T14:54:43;3.50;;;2.53;;
10309;SDS011;5200;43.236;27.986;2023-05-17T14:57:10;4.60;;;2.70;;